KAKO/AKO METAR and TAF weather

Enter ICAO airport designator
Station Type Date Time Source
KAKO METAR 2019/02/23 16:53 UTC NOAA

KAKO 231653Z AUTO 35009KT 10SM BKN095 M06/M09 A2982 RMK AO2 SLP140 T10611089


Station Type Date Time Source
KAKO Decoded METAR 2019/02/23 16:53 UTC NOAA

COLORADO PLAINS REGIONAL, CO, United States (KAKO) 40-10N 103-13W 1421M
Feb 23, 2019 - 11:53 AM EST / 2019.02.23 1653 UTC
Wind: from the N (350 degrees) at 10 MPH (9 KT):0
Visibility: 10 mile(s):0
Sky conditions: mostly cloudy
Temperature: 21.0 F (-6.1 C)
Windchill: 10 F (-12 C):1
Dew Point: 16.0 F (-8.9 C)
Relative Humidity: 80%
Pressure (altimeter): 29.82 in. Hg (1009 hPa)
ob: KAKO 231653Z AUTO 35009KT 10SM BKN095 M06/M09 A2982 RMK AO2 SLP140 T10611089
cycle: 17

Station Type Date Time Source
KAKO TAF UTC NOAA

Error!


Example: see airport list